Create Tblcommutelog Verified Points Advance Search
| # | Trip ID | Id Commuter | Trip Date | Trip Num | Current Lat | Current Lng | Delta Distance | Current Time | Activity | Activity Confidence | Current Speed | |
|---|---|---|---|---|---|---|---|---|---|---|---|---|
| 71601 | 251210_620038_16515461_0807 | 620038 | (not set) | (not set) | 38.832072166499 | -77.080688399471 | 0.8393 | 2025-12-10 08:27:58 | on_bicycle | 100 | 3.8087744865754 | |
| 71602 | 251210_785945_16514386_0820 | 785945 | (not set) | (not set) | 38.975425865224 | -76.933515142242 | 1.1549 | 2025-12-10 08:27:58 | unknown | 100 | 2.7045875168757 | |
| 71603 | 251210_785945_16514386_0820 | 785945 | (not set) | (not set) | 38.975425865224 | -76.933515142242 | 1.1549 | 2025-12-10 08:27:58 | unknown | 100 | 2.7045875168757 | |
| 71604 | 251210_772317_6438355_0752 | 772317 | (not set) | (not set) | 38.89827795796 | -77.046113982868 | 5.3249 | 2025-12-10 08:27:59 | on_bicycle | 100 | 2.583886916949 | |
| 71605 | 251210_772317_6438355_0752 | 772317 | (not set) | (not set) | 38.89827795796 | -77.046113982868 | 5.3249 | 2025-12-10 08:27:59 | on_bicycle | 100 | 2.583886916949 | |
| 71606 | 251210_769309_6461772_0827 | 769309 | (not set) | (not set) | 38.975968110835 | -77.432672658262 | 0 | 2025-12-10 08:27:58 | unknown | 100 | 0 | |
| 71607 | 251210_781550_16430248_0811 | 781550 | (not set) | (not set) | 38.89815001806 | -77.007322325188 | 5.8641 | 2025-12-10 08:27:58 | in_vehicle | 100 | -0.44703925898772 | |
| 71608 | 251210_790244_16496586_0817 | 790244 | (not set) | (not set) | 39.080299794961 | -76.858398465013 | 6.362 | 2025-12-10 08:27:58 | in_vehicle | 100 | 7.572845047252 | |
| 71609 | 251210_769309_6461772_0827 | 769309 | (not set) | (not set) | 38.975968110835 | -77.432672658262 | 0 | 2025-12-10 08:27:58 | still | 33 | 0 | |
| 71610 | 251210_739141_6438355_0806 | 739141 | (not set) | (not set) | 38.65858995 | -77.288649933333 | 4.7749 | 2025-12-10 08:27:59 | unknown | 100 | 0 | |
| 71611 | 251210_739141_6438355_0806 | 739141 | (not set) | (not set) | 38.65849465 | -77.288406333333 | 4.8496 | 2025-12-10 08:27:59 | unknown | 100 | 0 | |
| 71612 | 251210_788532_16505281_0717 | 788532 | (not set) | (not set) | 39.080398766141 | -76.858156405512 | 16.6401 | 2025-12-10 08:28:00 | in_vehicle | 100 | 7.1123946104947 | |
| 71613 | 251210_788532_16505281_0717 | 788532 | (not set) | (not set) | 39.080398766141 | -76.858156405512 | 16.6401 | 2025-12-10 08:28:00 | in_vehicle | 100 | 7.1123946104947 | |
| 71614 | 251210_704403_6438355_0819 | 704403 | (not set) | (not set) | 38.855570404686 | -77.072544383799 | 8.5107 | 2025-12-10 08:28:00 | in_vehicle | 100 | 14.305256287607 | |
| 71615 | 251210_784208_16509837_0813 | 784208 | (not set) | (not set) | 38.749378113417 | -77.138358353657 | 0.6953 | 2025-12-10 08:28:00 | on_foot | 100 | 2.4587159244325 | |
| 71616 | 251210_784208_16509837_0813 | 784208 | (not set) | (not set) | 38.749378113417 | -77.138358353657 | 0.6953 | 2025-12-10 08:28:00 | on_foot | 100 | 2.4587159244325 | |
| 71617 | 251210_784208_16509837_0813 | 784208 | (not set) | (not set) | 38.749378113417 | -77.138358353657 | 0.6953 | 2025-12-10 08:28:00 | on_foot | 100 | 2.4587159244325 | |
| 71618 | 251210_784208_16509837_0813 | 784208 | (not set) | (not set) | 38.749378113417 | -77.138358353657 | 0.6953 | 2025-12-10 08:28:00 | on_foot | 100 | 2.4587159244325 | |
| 71619 | 251210_784208_16509837_0813 | 784208 | (not set) | (not set) | 38.749378113417 | -77.138358353657 | 0.6953 | 2025-12-10 08:28:00 | on_foot | 100 | 2.4587159244325 | |
| 71620 | 251210_784208_16509837_0813 | 784208 | (not set) | (not set) | 38.749378113417 | -77.138358353657 | 0.6953 | 2025-12-10 08:28:00 | on_foot | 100 | 2.4587159244325 |